createdAt,value
2023-03-07T00:02:18.145Z,13.03
2023-03-07T00:04:46.702Z,13.13
2023-03-07T00:07:14.751Z,13.83
2023-03-07T00:09:42.331Z,11.93
2023-03-07T00:12:10.511Z,12.53
2023-03-07T00:14:38.098Z,12.43
2023-03-07T00:17:05.615Z,12.43
2023-03-07T00:19:33.164Z,11.73
2023-03-07T00:22:00.517Z,11.40
2023-03-07T00:24:28.036Z,11.37
2023-03-07T00:26:55.406Z,13.53
2023-03-07T00:29:22.836Z,13.10
2023-03-07T00:31:50.224Z,13.23
2023-03-07T00:34:17.713Z,12.67
2023-03-07T00:36:45.175Z,12.33
2023-03-07T00:39:12.837Z,11.50
2023-03-07T00:41:40.245Z,12.13
2023-03-07T00:44:07.714Z,12.43
2023-03-07T00:46:35.256Z,12.07
2023-03-07T00:49:03.978Z,11.50
2023-03-07T00:51:31.416Z,11.63
2023-03-07T00:53:59.174Z,10.77
2023-03-07T00:56:27.043Z,11.83
2023-03-07T00:58:54.609Z,11.93
2023-03-07T01:01:24.883Z,12.73
2023-03-07T01:03:56.386Z,11.67
2023-03-07T01:06:26.873Z,11.82
2023-03-07T01:08:57.730Z,11.43
2023-03-07T01:11:26.455Z,11.00
2023-03-07T01:13:58.612Z,11.93
2023-03-07T01:16:29.218Z,11.63
2023-03-07T01:19:00.055Z,10.60
2023-03-07T01:21:33.107Z,11.27
2023-03-07T01:24:05.359Z,11.80
2023-03-07T01:26:34.374Z,11.90
2023-03-07T01:29:04.194Z,11.13
2023-03-07T01:31:35.228Z,12.77
2023-03-07T01:34:03.948Z,11.17
2023-03-07T01:36:36.765Z,12.05
2023-03-07T01:39:14.671Z,10.83
2023-03-07T01:42:05.775Z,10.60
2023-03-07T01:45:04.647Z,11.40
2023-03-07T01:47:43.654Z,12.30
2023-03-07T01:50:16.493Z,10.57
2023-03-07T01:52:50.570Z,12.73
2023-03-07T01:55:26.271Z,11.37
2023-03-07T01:57:58.685Z,11.37
2023-03-07T02:00:29.971Z,11.23
2023-03-07T02:03:20.098Z,11.57
2023-03-07T02:05:57.220Z,12.23
2023-03-07T02:08:28.768Z,12.33
2023-03-07T02:10:56.380Z,11.70
2023-03-07T02:13:23.949Z,12.43
2023-03-07T02:15:52.071Z,11.53
2023-03-07T02:18:24.262Z,11.57
2023-03-07T02:21:20.686Z,11.60
2023-03-07T02:24:00.716Z,12.43
2023-03-07T02:26:51.649Z,11.67
2023-03-07T02:29:19.902Z,12.50
2023-03-07T02:31:48.379Z,12.27
2023-03-07T02:34:28.156Z,11.33
2023-03-07T02:37:24.442Z,12.77
2023-03-07T02:39:53.949Z,12.33
2023-03-07T02:42:23.640Z,12.50
2023-03-07T02:45:02.217Z,13.40
2023-03-07T02:47:33.389Z,12.77
2023-03-07T02:50:01.483Z,12.13
2023-03-07T02:52:29.906Z,13.87
2023-03-07T02:54:58.527Z,14.87
2023-03-07T02:57:30.416Z,12.00
2023-03-07T03:00:00.034Z,13.67
2023-03-07T03:02:27.537Z,12.43
2023-03-07T03:04:55.077Z,13.90
2023-03-07T03:07:23.978Z,13.30
2023-03-07T03:09:51.391Z,12.40
2023-03-07T03:12:18.792Z,12.87
2023-03-07T03:14:46.400Z,12.27
2023-03-07T03:17:14.064Z,13.90
2023-03-07T03:19:44.426Z,12.13
2023-03-07T03:22:11.886Z,15.40
2023-03-07T03:24:43.135Z,14.63
2023-03-07T03:27:14.153Z,16.00
2023-03-07T03:29:43.611Z,14.63
2023-03-07T03:32:12.039Z,15.20
2023-03-07T03:34:41.555Z,13.47
2023-03-07T03:37:09.240Z,13.67
2023-03-07T03:39:37.702Z,15.07
2023-03-07T03:42:06.405Z,13.73
2023-03-07T03:44:34.349Z,13.97
2023-03-07T03:47:02.903Z,14.00
2023-03-07T03:49:31.666Z,11.73
2023-03-07T03:51:59.269Z,11.83
2023-03-07T03:54:26.668Z,11.93
2023-03-07T03:56:55.112Z,10.23
2023-03-07T03:59:23.291Z,10.50
2023-03-07T04:01:51.569Z,9.90
2023-03-07T04:04:19.953Z,11.33
2023-03-07T04:06:48.420Z,10.37
2023-03-07T04:09:15.771Z,10.17
2023-03-07T04:11:46.747Z,11.20
2023-03-07T04:14:14.424Z,10.70
2023-03-07T04:16:42.248Z,10.53
2023-03-07T04:19:13.074Z,9.07
2023-03-07T04:21:42.979Z,10.50
2023-03-07T04:24:11.232Z,9.60
2023-03-07T04:26:38.642Z,9.87
2023-03-07T04:29:06.088Z,9.57
2023-03-07T04:31:41.191Z,10.43
2023-03-07T04:34:10.404Z,9.13
2023-03-07T04:36:38.112Z,10.03
2023-03-07T04:39:06.334Z,9.73
2023-03-07T04:41:34.880Z,10.00
2023-03-07T04:44:17.394Z,9.40
2023-03-07T04:46:44.969Z,9.03
2023-03-07T04:49:12.745Z,9.20
2023-03-07T04:51:43.652Z,8.87
2023-03-07T04:54:12.425Z,10.30
2023-03-07T04:56:40.204Z,8.27
2023-03-07T04:59:09.890Z,7.80
2023-03-07T05:01:37.316Z,7.67
2023-03-07T05:04:05.405Z,10.00
2023-03-07T05:06:32.914Z,8.53
2023-03-07T05:09:00.760Z,9.60
2023-03-07T05:11:28.199Z,8.30
2023-03-07T05:13:56.090Z,9.13
2023-03-07T05:16:24.134Z,8.77
2023-03-07T05:18:51.653Z,8.23
2023-03-07T05:21:19.760Z,7.60
2023-03-07T05:23:47.310Z,8.93
2023-03-07T05:26:14.716Z,9.07
2023-03-07T05:28:42.336Z,9.27
2023-03-07T05:31:10.096Z,9.40
2023-03-07T05:33:37.843Z,8.83
2023-03-07T05:36:05.842Z,8.90
2023-03-07T05:38:33.589Z,9.47
2023-03-07T05:41:01.228Z,8.33
2023-03-07T05:43:28.827Z,8.03
2023-03-07T05:45:56.701Z,8.77
2023-03-07T05:48:24.310Z,7.93
2023-03-07T05:50:51.968Z,8.37
2023-03-07T05:53:20.312Z,9.07
2023-03-07T05:55:48.479Z,8.47
2023-03-07T05:58:18.072Z,7.23
2023-03-07T06:00:47.350Z,7.90
2023-03-07T06:03:15.294Z,8.73
2023-03-07T06:05:43.279Z,6.73
2023-03-07T06:08:10.927Z,7.60
2023-03-07T06:10:40.350Z,8.00
2023-03-07T06:13:18.524Z,7.60
2023-03-07T06:15:48.302Z,8.40
2023-03-07T06:18:15.919Z,7.03
2023-03-07T06:20:43.629Z,7.50
2023-03-07T06:23:13.282Z,8.10
2023-03-07T06:25:41.653Z,6.90
2023-03-07T06:28:09.084Z,7.13
2023-03-07T06:30:36.660Z,7.60
2023-03-07T06:33:04.668Z,7.93
2023-03-07T06:35:32.330Z,8.03
2023-03-07T06:37:59.947Z,7.43
2023-03-07T06:40:27.716Z,7.77
2023-03-07T06:42:55.424Z,7.70
2023-03-07T06:45:23.038Z,7.27
2023-03-07T06:47:50.556Z,7.23
2023-03-07T06:50:23.784Z,6.80
2023-03-07T06:52:57.695Z,8.43
2023-03-07T06:55:25.753Z,7.43
2023-03-07T06:57:53.156Z,6.97
2023-03-07T07:00:22.735Z,7.50
2023-03-07T07:02:50.296Z,6.37
2023-03-07T07:05:18.050Z,6.33
2023-03-07T07:07:46.533Z,7.33
2023-03-07T07:10:14.533Z,6.93
2023-03-07T07:12:41.993Z,6.23
2023-03-07T07:15:10.717Z,6.47
2023-03-07T07:17:40.987Z,7.03
2023-03-07T07:20:11.414Z,5.90
2023-03-07T07:25:10.523Z,6.00
2023-03-07T07:27:38.395Z,5.83
2023-03-07T07:30:07.223Z,5.30
2023-03-07T07:32:35.055Z,5.47
2023-03-07T07:35:04.417Z,6.37
2023-03-07T07:37:32.739Z,5.00
2023-03-07T07:40:00.196Z,5.23
2023-03-07T07:42:27.900Z,5.50
2023-03-07T07:45:06.685Z,5.60
2023-03-07T07:47:34.306Z,5.27
2023-03-07T07:50:02.037Z,5.47
2023-03-07T07:52:33.894Z,5.38
2023-03-07T07:55:01.455Z,5.40
2023-03-07T07:57:29.183Z,5.37
2023-03-07T07:59:58.656Z,4.87
2023-03-07T08:02:26.419Z,5.03
2023-03-07T08:04:53.967Z,5.37
2023-03-07T08:07:21.426Z,4.33
2023-03-07T08:09:48.854Z,4.27
2023-03-07T08:12:16.208Z,4.20
2023-03-07T08:14:43.861Z,4.30
2023-03-07T08:17:11.420Z,4.27
2023-03-07T08:19:38.807Z,4.30
2023-03-07T08:22:06.382Z,3.93
2023-03-07T08:24:40.466Z,3.47
2023-03-07T08:27:09.040Z,4.37
2023-03-07T08:29:36.586Z,4.47
2023-03-07T08:32:04.254Z,3.63
2023-03-07T08:34:34.742Z,3.78
2023-03-07T08:37:02.193Z,3.60
2023-03-07T08:39:29.616Z,3.38
2023-03-07T08:41:57.133Z,3.30
2023-03-07T08:44:24.893Z,3.72
2023-03-07T08:46:52.285Z,3.67
2023-03-07T08:49:19.693Z,2.97
2023-03-07T08:51:48.198Z,3.30
2023-03-07T08:54:17.502Z,2.95
2023-03-07T08:56:47.437Z,3.72
2023-03-07T09:02:07.603Z,3.13
2023-03-07T09:04:35.232Z,2.85
2023-03-07T09:07:02.688Z,2.95
2023-03-07T09:09:31.394Z,3.33
2023-03-07T09:11:58.982Z,3.00
2023-03-07T09:14:26.434Z,2.95
2023-03-07T09:16:53.926Z,3.40
2023-03-07T09:19:22.269Z,3.72
2023-03-07T09:21:50.082Z,2.72
2023-03-07T09:24:17.605Z,3.50
2023-03-07T09:26:45.068Z,3.15
2023-03-07T09:29:12.623Z,3.47
2023-03-07T09:31:41.543Z,3.75
2023-03-07T09:34:09.057Z,2.88
2023-03-07T09:36:37.391Z,3.35
2023-03-07T09:39:06.221Z,3.05
2023-03-07T09:42:16.008Z,3.30
2023-03-07T09:45:30.036Z,5.45
2023-03-07T09:48:56.500Z,4.13
2023-03-07T09:51:38.034Z,3.13
2023-03-07T09:54:41.089Z,3.67
2023-03-07T09:57:17.911Z,4.00
2023-03-07T09:59:50.430Z,3.60
2023-03-07T10:02:34.779Z,3.25
2023-03-07T10:05:30.523Z,3.90
2023-03-07T10:08:00.340Z,3.40
2023-03-07T10:10:41.541Z,3.88
2023-03-07T10:14:02.752Z,4.00
2023-03-07T10:16:39.290Z,3.75
2023-03-07T10:19:49.115Z,3.38
2023-03-07T10:22:39.334Z,4.10
2023-03-07T10:25:39.387Z,4.13
2023-03-07T10:28:25.687Z,4.35
2023-03-07T10:30:59.579Z,4.05
2023-03-07T10:33:30.353Z,4.22
2023-03-07T10:36:07.341Z,4.30
2023-03-07T10:38:50.085Z,4.25
2023-03-07T10:41:21.627Z,4.07
2023-03-07T10:43:50.822Z,4.75
2023-03-07T10:46:28.303Z,4.40
2023-03-07T10:49:16.665Z,3.80
2023-03-07T10:52:06.950Z,4.10
2023-03-07T10:54:37.022Z,4.50
2023-03-07T10:57:16.576Z,3.45
2023-03-07T10:59:48.487Z,3.42
2023-03-07T11:02:44.793Z,4.13
2023-03-07T11:05:38.340Z,4.03
2023-03-07T11:08:25.413Z,4.50
2023-03-07T11:10:52.853Z,4.20
2023-03-07T11:13:22.957Z,4.22
2023-03-07T11:15:52.856Z,4.22
2023-03-07T11:18:39.591Z,4.68
2023-03-07T11:21:07.191Z,4.18
2023-03-07T11:23:34.657Z,4.32
2023-03-07T11:26:17.614Z,4.10
2023-03-07T11:28:45.046Z,4.20
2023-03-07T11:31:27.334Z,4.47
2023-03-07T11:36:48.808Z,4.70
2023-03-07T11:39:40.076Z,4.15
2023-03-07T11:42:23.107Z,4.40
2023-03-07T11:45:20.193Z,4.20
2023-03-07T11:48:51.824Z,3.85
2023-03-07T11:51:45.237Z,4.05
2023-03-07T11:55:01.476Z,4.40
2023-03-07T11:58:28.792Z,3.22
2023-03-07T12:01:17.652Z,3.67
2023-03-07T12:28:05.099Z,4.18
2023-03-07T12:30:59.150Z,4.60
2023-03-07T12:34:09.414Z,3.92
2023-03-07T12:36:54.292Z,3.88
2023-03-07T12:39:30.838Z,3.38
2023-03-07T12:42:08.970Z,4.10
2023-03-07T12:44:52.864Z,3.55
2023-03-07T12:47:36.257Z,4.03
2023-03-07T12:50:19.610Z,4.80
2023-03-07T12:52:52.499Z,4.32
2023-03-07T12:55:43.905Z,4.88
2023-03-07T12:58:51.524Z,5.20
2023-03-07T13:01:35.255Z,4.00
2023-03-07T13:04:18.591Z,4.43
2023-03-07T13:06:47.035Z,4.25
2023-03-07T13:09:25.142Z,3.97
2023-03-07T13:12:24.309Z,5.35
2023-03-07T13:14:57.777Z,4.20
2023-03-07T13:17:51.100Z,3.92
2023-03-07T13:21:06.241Z,4.40
2023-03-07T13:23:35.326Z,4.25
2023-03-07T13:26:06.563Z,4.22
2023-03-07T13:29:00.178Z,3.67
2023-03-07T13:31:37.347Z,4.32
2023-03-07T13:34:46.660Z,3.75
2023-03-07T13:37:51.483Z,3.97
2023-03-07T13:40:55.535Z,4.35
2023-03-07T13:43:35.752Z,3.75
2023-03-07T13:46:05.854Z,4.25
2023-03-07T13:49:02.540Z,3.88
2023-03-07T13:51:30.233Z,3.80
2023-03-07T13:54:03.992Z,3.80
2023-03-07T13:56:37.190Z,3.60
2023-03-07T13:59:28.328Z,3.75
2023-03-07T14:02:01.374Z,3.95
2023-03-07T14:04:58.311Z,4.68
2023-03-07T14:07:40.815Z,4.28
2023-03-07T14:10:28.384Z,4.00
2023-03-07T14:13:24.883Z,3.70
2023-03-07T14:16:36.624Z,4.20
2023-03-07T14:19:37.761Z,4.28
2023-03-07T14:22:55.890Z,4.35
2023-03-07T14:25:34.898Z,3.95
2023-03-07T14:28:17.902Z,3.97
2023-03-07T14:30:58.974Z,3.88
2023-03-07T14:33:37.375Z,4.10
2023-03-07T14:36:18.772Z,3.65
2023-03-07T14:38:47.853Z,4.03
2023-03-07T14:41:50.406Z,3.53
2023-03-07T14:47:38.999Z,3.35
2023-03-07T14:50:18.926Z,4.53
2023-03-07T14:52:48.432Z,3.50
2023-03-07T14:55:22.302Z,3.92
2023-03-07T14:57:53.142Z,3.97
2023-03-07T15:00:29.998Z,4.22
2023-03-07T15:03:08.292Z,3.58
2023-03-07T15:05:52.014Z,4.13
2023-03-07T15:08:35.244Z,4.13
2023-03-07T15:11:24.623Z,3.92
2023-03-07T15:14:16.493Z,3.20
2023-03-07T15:16:53.219Z,3.20
2023-03-07T15:19:31.415Z,3.78
2023-03-07T15:22:05.466Z,3.38
2023-03-07T15:24:36.050Z,3.30
2023-03-07T15:27:06.904Z,2.85
2023-03-07T15:29:34.614Z,3.67
2023-03-07T15:32:04.622Z,3.65
2023-03-07T15:34:35.127Z,3.10
2023-03-07T15:37:25.481Z,2.30
2023-03-07T15:40:36.447Z,2.25
2023-03-07T15:43:25.554Z,2.63
2023-03-07T15:46:17.505Z,3.08
2023-03-07T15:48:50.799Z,2.80
2023-03-07T15:51:21.634Z,2.70
2023-03-07T15:54:23.285Z,2.97
2023-03-07T15:56:56.366Z,2.07
2023-03-07T15:59:57.987Z,2.53
2023-03-07T16:02:37.755Z,2.70
2023-03-07T16:05:42.186Z,2.33
2023-03-07T16:08:13.782Z,2.50
2023-03-07T16:10:48.531Z,2.63
2023-03-07T16:13:20.174Z,2.90
2023-03-07T16:16:03.103Z,3.20
2023-03-07T16:18:31.472Z,2.80
2023-03-07T16:20:59.625Z,3.25
2023-03-07T16:23:31.077Z,2.60
2023-03-07T16:25:59.957Z,2.75
2023-03-07T16:28:28.284Z,2.92
2023-03-07T16:30:55.831Z,3.00
2023-03-07T16:33:23.230Z,2.67
2023-03-07T16:35:50.826Z,2.72
2023-03-07T16:38:18.304Z,2.78
2023-03-07T16:40:45.648Z,4.65
2023-03-07T16:43:39.627Z,4.82
2023-03-07T16:46:13.932Z,5.72
2023-03-07T16:48:42.068Z,7.13
2023-03-07T16:51:17.654Z,7.80
2023-03-07T16:53:46.158Z,4.70
2023-03-07T16:56:36.824Z,5.13
2023-03-07T16:59:05.988Z,3.33
2023-03-07T17:01:33.480Z,2.77
2023-03-07T17:04:00.882Z,3.50
2023-03-07T17:06:38.845Z,3.30
2023-03-07T17:09:09.666Z,2.53
2023-03-07T17:11:39.312Z,2.77
2023-03-07T17:14:09.187Z,2.50
2023-03-07T17:16:56.122Z,2.00
2023-03-07T17:19:32.288Z,2.10
2023-03-07T17:22:01.007Z,2.33
2023-03-07T17:24:29.450Z,2.30
2023-03-07T17:27:00.557Z,1.87
2023-03-07T17:29:44.676Z,1.60
2023-03-07T17:32:12.196Z,1.40
2023-03-07T17:34:40.074Z,1.87
2023-03-07T17:37:08.098Z,1.20
2023-03-07T17:39:35.921Z,1.40
2023-03-07T17:42:04.341Z,1.40
2023-03-07T17:44:32.822Z,1.30
2023-03-07T17:47:00.741Z,1.10
2023-03-07T17:49:34.411Z,1.50
2023-03-07T17:52:02.592Z,1.90
2023-03-07T17:54:31.993Z,2.40
2023-03-07T17:56:59.528Z,1.93
2023-03-07T17:59:27.192Z,1.73
2023-03-07T18:01:54.939Z,2.00
2023-03-07T18:04:22.490Z,1.97
2023-03-07T18:06:49.822Z,2.07
2023-03-07T18:09:18.807Z,2.43
2023-03-07T18:11:46.184Z,2.60
2023-03-07T18:14:13.861Z,2.57
2023-03-07T18:16:43.875Z,2.70
2023-03-07T18:19:25.346Z,2.77
2023-03-07T18:21:53.330Z,2.72
2023-03-07T18:24:26.200Z,2.80
2023-03-07T18:26:55.193Z,2.80
2023-03-07T18:29:23.867Z,3.47
2023-03-07T18:31:51.736Z,2.50
2023-03-07T18:34:19.266Z,2.47
2023-03-07T18:36:48.130Z,2.47
2023-03-07T18:39:15.637Z,2.87
2023-03-07T18:41:43.081Z,3.50
2023-03-07T18:44:10.523Z,3.03
2023-03-07T18:46:38.370Z,2.60
2023-03-07T18:49:06.057Z,4.23
2023-03-07T18:51:33.623Z,3.50
2023-03-07T18:54:02.213Z,3.63
2023-03-07T18:56:30.650Z,3.43
2023-03-07T18:58:59.388Z,3.00
2023-03-07T19:01:30.197Z,3.43
2023-03-07T19:04:01.322Z,3.33
2023-03-07T19:06:35.816Z,7.83
2023-03-07T19:09:03.928Z,5.60
2023-03-07T19:11:31.924Z,4.10
2023-03-07T19:14:00.226Z,5.67
2023-03-07T19:16:28.719Z,10.60
2023-03-07T19:18:56.775Z,3.93
2023-03-07T19:21:26.639Z,3.43
2023-03-07T19:23:55.792Z,5.67
2023-03-07T19:26:23.682Z,4.27
2023-03-07T19:28:53.629Z,5.07
2023-03-07T19:31:23.904Z,2.83
2023-03-07T19:33:52.176Z,4.73
2023-03-07T19:36:29.678Z,4.07
2023-03-07T19:38:59.214Z,3.93
2023-03-07T19:41:29.582Z,4.00
2023-03-07T19:43:58.301Z,4.10
2023-03-07T19:46:25.965Z,3.77
2023-03-07T19:48:53.947Z,4.33
2023-03-07T19:51:23.891Z,4.03
2023-03-07T19:53:51.918Z,4.73
2023-03-07T19:56:22.171Z,5.97
2023-03-07T19:58:50.035Z,6.73
2023-03-07T20:01:19.443Z,5.93
2023-03-07T20:03:47.584Z,6.37
2023-03-07T20:06:23.798Z,5.67
2023-03-07T20:08:52.763Z,4.83
2023-03-07T20:11:24.961Z,5.00
2023-03-07T20:13:56.055Z,3.60
2023-03-07T20:16:24.441Z,3.40
2023-03-07T20:18:53.330Z,3.40
2023-03-07T20:21:22.257Z,3.23
2023-03-07T20:23:50.435Z,2.60
2023-03-07T20:26:21.606Z,4.70
2023-03-07T20:28:50.332Z,3.85
2023-03-07T20:31:18.168Z,4.57
2023-03-07T20:33:46.913Z,4.10
2023-03-07T20:36:20.202Z,6.00
2023-03-07T20:38:52.772Z,6.57
2023-03-07T20:41:22.814Z,6.63
2023-03-07T20:43:52.314Z,5.67
2023-03-07T20:46:21.258Z,3.83
2023-03-07T20:48:49.094Z,4.00
2023-03-07T20:51:19.870Z,4.47
2023-03-07T20:53:49.686Z,7.80
2023-03-07T20:56:18.415Z,13.23
2023-03-07T20:58:46.656Z,11.30
2023-03-07T21:01:17.322Z,10.57
2023-03-07T21:03:45.413Z,8.00
2023-03-07T21:06:12.937Z,7.87
2023-03-07T21:08:40.548Z,7.17
2023-03-07T21:11:10.957Z,5.50
2023-03-07T21:13:40.895Z,6.13
2023-03-07T21:16:17.743Z,5.20
2023-03-07T21:18:45.886Z,5.00
2023-03-07T21:21:16.232Z,4.40
2023-03-07T21:23:44.312Z,4.07
2023-03-07T21:26:17.916Z,3.93
2023-03-07T21:28:46.277Z,4.73
2023-03-07T21:31:19.317Z,4.53
2023-03-07T21:33:50.857Z,5.20
2023-03-07T21:36:18.784Z,4.25
2023-03-07T21:38:46.878Z,5.33
2023-03-07T21:41:15.839Z,5.40
2023-03-07T21:43:43.350Z,4.77
2023-03-07T21:46:12.620Z,4.70
2023-03-07T21:48:40.270Z,5.80
2023-03-07T21:51:08.735Z,4.90
2023-03-07T21:53:36.304Z,4.37
2023-03-07T21:56:06.971Z,5.27
2023-03-07T21:58:34.931Z,5.80
2023-03-07T22:01:12.865Z,5.47
2023-03-07T22:03:41.029Z,5.17
2023-03-07T22:06:10.184Z,5.07
2023-03-07T22:08:38.339Z,5.00
2023-03-07T22:11:07.453Z,5.20
2023-03-07T22:13:36.684Z,5.30
2023-03-07T22:16:07.307Z,4.97
2023-03-07T22:18:35.444Z,4.77
2023-03-07T22:21:07.983Z,5.00
2023-03-07T22:23:36.148Z,4.10
2023-03-07T22:26:08.925Z,4.50
2023-03-07T22:28:36.531Z,4.80
2023-03-07T22:31:09.522Z,4.97
2023-03-07T22:33:37.144Z,3.73
2023-03-07T22:36:07.090Z,4.37
2023-03-07T22:38:34.694Z,5.13
2023-03-07T22:41:14.157Z,4.57
2023-03-07T22:43:41.716Z,4.37
2023-03-07T22:46:09.774Z,4.10
2023-03-07T22:48:37.571Z,4.03
2023-03-07T22:51:05.489Z,4.73
2023-03-07T22:53:33.873Z,4.07
2023-03-07T22:56:01.753Z,4.53
2023-03-07T22:58:30.086Z,4.33
2023-03-07T23:00:57.718Z,2.70
2023-03-07T23:03:25.161Z,2.00
2023-03-07T23:05:52.596Z,1.63
2023-03-07T23:08:20.649Z,1.90
2023-03-07T23:10:48.101Z,1.77
2023-03-07T23:13:17.100Z,1.50
2023-03-07T23:15:44.914Z,1.67
2023-03-07T23:18:12.469Z,2.70
2023-03-07T23:20:40.138Z,4.13
2023-03-07T23:23:07.534Z,2.83
2023-03-07T23:25:39.302Z,2.07
2023-03-07T23:28:06.768Z,1.80
2023-03-07T23:30:38.849Z,1.60
2023-03-07T23:35:35.033Z,1.70
2023-03-07T23:38:02.874Z,1.33
2023-03-07T23:40:30.642Z,1.17
2023-03-07T23:42:58.696Z,1.30
2023-03-07T23:45:26.810Z,1.33
2023-03-07T23:47:54.209Z,1.77
2023-03-07T23:50:21.982Z,1.93
2023-03-07T23:52:49.550Z,1.63
2023-03-07T23:55:17.218Z,1.70
2023-03-07T23:57:48.292Z,1.80
